sensor_id;sensor_type;location;lat;lon;timestamp;temperature;humidity
59999;DHT22;45859;51.378;6.736;2022-09-12T00:02:21;13.10;99.90
59999;DHT22;45859;51.378;6.736;2022-09-12T00:04:47;13.00;99.90
59999;DHT22;45859;51.378;6.736;2022-09-12T00:07:12;13.00;99.90
59999;DHT22;45859;51.378;6.736;2022-09-12T00:09:38;13.00;99.90
59999;DHT22;45859;51.378;6.736;2022-09-12T00:12:04;13.20;99.90
59999;DHT22;45859;51.378;6.736;2022-09-12T00:14:30;13.00;99.90
59999;DHT22;45859;51.378;6.736;2022-09-12T00:16:59;12.90;99.90
59999;DHT22;45859;51.378;6.736;2022-09-12T00:19:29;12.80;99.90
59999;DHT22;45859;51.378;6.736;2022-09-12T00:21:55;12.80;99.90
59999;DHT22;45859;51.378;6.736;2022-09-12T00:24:21;12.70;99.90
59999;DHT22;45859;51.378;6.736;2022-09-12T00:26:47;12.70;99.90
59999;DHT22;45859;51.378;6.736;2022-09-12T00:29:20;12.70;99.90
59999;DHT22;45859;51.378;6.736;2022-09-12T00:31:46;12.60;99.90
59999;DHT22;45859;51.378;6.736;2022-09-12T00:34:12;12.70;99.90
59999;DHT22;45859;51.378;6.736;2022-09-12T00:36:39;12.70;99.90
59999;DHT22;45859;51.378;6.736;2022-09-12T00:39:05;12.70;99.90
59999;DHT22;45859;51.378;6.736;2022-09-12T00:41:37;12.70;99.90
59999;DHT22;45859;51.378;6.736;2022-09-12T00:44:49;12.70;99.90
59999;DHT22;45859;51.378;6.736;2022-09-12T00:47:11;12.70;99.90
59999;DHT22;45859;51.378;6.736;2022-09-12T00:52:28;12.60;99.90
59999;DHT22;45859;51.378;6.736;2022-09-12T00:55:27;12.60;99.90
59999;DHT22;45859;51.378;6.736;2022-09-12T00:58:09;12.60;99.90
59999;DHT22;45859;51.378;6.736;2022-09-12T01:00:36;12.60;99.90
59999;DHT22;45859;51.378;6.736;2022-09-12T01:03:11;12.50;99.90
59999;DHT22;45859;51.378;6.736;2022-09-12T01:05:43;12.60;99.90
59999;DHT22;45859;51.378;6.736;2022-09-12T01:08:12;12.50;99.90
59999;DHT22;45859;51.378;6.736;2022-09-12T01:10:39;12.60;99.90
59999;DHT22;45859;51.378;6.736;2022-09-12T01:13:07;13.40;99.90
59999;DHT22;45859;51.378;6.736;2022-09-12T01:15:36;12.60;99.90
59999;DHT22;45859;51.378;6.736;2022-09-12T01:20:43;12.60;99.90
59999;DHT22;45859;51.378;6.736;2022-09-12T01:31:51;12.50;99.90
59999;DHT22;45859;51.378;6.736;2022-09-12T01:34:23;12.40;99.90
59999;DHT22;45859;51.378;6.736;2022-09-12T01:37:14;12.40;99.90
59999;DHT22;45859;51.378;6.736;2022-09-12T01:42:38;12.40;99.90
59999;DHT22;45859;51.378;6.736;2022-09-12T01:45:29;12.40;99.90
59999;DHT22;45859;51.378;6.736;2022-09-12T01:48:05;12.40;99.90
59999;DHT22;45859;51.378;6.736;2022-09-12T01:50:36;12.40;99.90
59999;DHT22;45859;51.378;6.736;2022-09-12T01:53:13;12.30;99.90
59999;DHT22;45859;51.378;6.736;2022-09-12T01:56:06;12.40;99.90
59999;DHT22;45859;51.378;6.736;2022-09-12T01:58:42;12.30;99.90
59999;DHT22;45859;51.378;6.736;2022-09-12T02:01:20;12.30;99.90
59999;DHT22;45859;51.378;6.736;2022-09-12T02:04:07;12.30;99.90
59999;DHT22;45859;51.378;6.736;2022-09-12T02:09:33;12.30;99.90
59999;DHT22;45859;51.378;6.736;2022-09-12T02:12:00;12.10;99.90
59999;DHT22;45859;51.378;6.736;2022-09-12T02:14:30;12.20;99.90
59999;DHT22;45859;51.378;6.736;2022-09-12T02:17:09;12.30;99.90
59999;DHT22;45859;51.378;6.736;2022-09-12T02:19:41;12.30;99.90
59999;DHT22;45859;51.378;6.736;2022-09-12T02:22:11;12.30;99.90
59999;DHT22;45859;51.378;6.736;2022-09-12T02:24:41;12.20;99.90
59999;DHT22;45859;51.378;6.736;2022-09-12T02:27:23;12.20;99.90
59999;DHT22;45859;51.378;6.736;2022-09-12T02:29:51;12.10;99.90
59999;DHT22;45859;51.378;6.736;2022-09-12T02:32:29;12.20;99.90
59999;DHT22;45859;51.378;6.736;2022-09-12T02:35:07;12.10;99.90
59999;DHT22;45859;51.378;6.736;2022-09-12T02:37:40;12.10;99.90
59999;DHT22;45859;51.378;6.736;2022-09-12T02:40:10;12.10;99.90
59999;DHT22;45859;51.378;6.736;2022-09-12T02:42:36;12.10;99.90
59999;DHT22;45859;51.378;6.736;2022-09-12T02:45:02;12.10;99.90
59999;DHT22;45859;51.378;6.736;2022-09-12T02:47:36;12.10;99.90
59999;DHT22;45859;51.378;6.736;2022-09-12T02:50:04;12.10;99.90
59999;DHT22;45859;51.378;6.736;2022-09-12T02:52:30;12.10;99.90
59999;DHT22;45859;51.378;6.736;2022-09-12T02:54:57;12.10;99.90
59999;DHT22;45859;51.378;6.736;2022-09-12T02:57:22;12.10;99.90
59999;DHT22;45859;51.378;6.736;2022-09-12T02:59:50;12.10;99.90
59999;DHT22;45859;51.378;6.736;2022-09-12T03:03:19;12.10;99.90
59999;DHT22;45859;51.378;6.736;2022-09-12T03:13:24;12.10;99.90
59999;DHT22;45859;51.378;6.736;2022-09-12T03:29:11;11.90;99.90
59999;DHT22;45859;51.378;6.736;2022-09-12T03:31:51;12.00;99.90
59999;DHT22;45859;51.378;6.736;2022-09-12T03:34:17;11.90;99.90
59999;DHT22;45859;51.378;6.736;2022-09-12T03:36:43;11.90;99.90
59999;DHT22;45859;51.378;6.736;2022-09-12T03:39:09;12.10;99.90
59999;DHT22;45859;51.378;6.736;2022-09-12T03:41:34;12.00;99.90
59999;DHT22;45859;51.378;6.736;2022-09-12T03:44:00;12.70;99.90
59999;DHT22;45859;51.378;6.736;2022-09-12T03:46:26;11.90;99.90
59999;DHT22;45859;51.378;6.736;2022-09-12T03:48:51;12.00;99.90
59999;DHT22;45859;51.378;6.736;2022-09-12T03:51:17;12.00;99.90
59999;DHT22;45859;51.378;6.736;2022-09-12T03:53:43;12.10;99.90
59999;DHT22;45859;51.378;6.736;2022-09-12T03:56:10;12.10;99.90
59999;DHT22;45859;51.378;6.736;2022-09-12T03:58:36;12.00;99.90
59999;DHT22;45859;51.378;6.736;2022-09-12T04:01:20;12.00;99.90
59999;DHT22;45859;51.378;6.736;2022-09-12T04:03:48;12.10;99.90
59999;DHT22;45859;51.378;6.736;2022-09-12T04:06:16;12.00;99.90
59999;DHT22;45859;51.378;6.736;2022-09-12T04:08:43;12.00;99.90
59999;DHT22;45859;51.378;6.736;2022-09-12T04:11:11;12.00;99.90
59999;DHT22;45859;51.378;6.736;2022-09-12T04:13:38;12.00;99.90
59999;DHT22;45859;51.378;6.736;2022-09-12T04:16:08;12.10;99.90
59999;DHT22;45859;51.378;6.736;2022-09-12T04:18:34;12.00;99.90
59999;DHT22;45859;51.378;6.736;2022-09-12T04:21:09;12.00;99.90
59999;DHT22;45859;51.378;6.736;2022-09-12T04:23:35;11.90;99.90
59999;DHT22;45859;51.378;6.736;2022-09-12T04:26:01;11.90;99.90
59999;DHT22;45859;51.378;6.736;2022-09-12T04:28:28;11.90;99.90
59999;DHT22;45859;51.378;6.736;2022-09-12T04:30:54;11.80;99.90
59999;DHT22;45859;51.378;6.736;2022-09-12T04:33:20;11.80;99.90
59999;DHT22;45859;51.378;6.736;2022-09-12T04:35:47;11.80;99.90
59999;DHT22;45859;51.378;6.736;2022-09-12T04:38:13;11.80;99.90
59999;DHT22;45859;51.378;6.736;2022-09-12T04:40:39;11.90;99.90
59999;DHT22;45859;51.378;6.736;2022-09-12T04:43:05;11.80;99.90
59999;DHT22;45859;51.378;6.736;2022-09-12T04:45:32;11.90;99.90
59999;DHT22;45859;51.378;6.736;2022-09-12T04:47:57;11.80;99.90
59999;DHT22;45859;51.378;6.736;2022-09-12T04:50:23;11.90;99.90
59999;DHT22;45859;51.378;6.736;2022-09-12T04:52:53;11.80;99.90
59999;DHT22;45859;51.378;6.736;2022-09-12T04:55:20;11.80;99.90
59999;DHT22;45859;51.378;6.736;2022-09-12T04:57:45;11.80;99.90
59999;DHT22;45859;51.378;6.736;2022-09-12T05:00:12;11.80;99.90
59999;DHT22;45859;51.378;6.736;2022-09-12T05:02:41;11.90;99.90
59999;DHT22;45859;51.378;6.736;2022-09-12T05:05:07;11.80;99.90
59999;DHT22;45859;51.378;6.736;2022-09-12T05:07:33;11.80;99.90
59999;DHT22;45859;51.378;6.736;2022-09-12T05:09:59;11.90;99.90
59999;DHT22;45859;51.378;6.736;2022-09-12T05:12:26;11.90;99.90
59999;DHT22;45859;51.378;6.736;2022-09-12T05:14:52;12.00;99.90
59999;DHT22;45859;51.378;6.736;2022-09-12T05:17:17;12.00;99.90
59999;DHT22;45859;51.378;6.736;2022-09-12T05:19:43;12.30;99.90
59999;DHT22;45859;51.378;6.736;2022-09-12T05:22:09;12.00;99.90
59999;DHT22;45859;51.378;6.736;2022-09-12T05:24:35;12.00;99.90
59999;DHT22;45859;51.378;6.736;2022-09-12T05:27:02;12.10;99.90
59999;DHT22;45859;51.378;6.736;2022-09-12T05:29:29;12.20;99.90
59999;DHT22;45859;51.378;6.736;2022-09-12T05:31:54;12.20;99.90
59999;DHT22;45859;51.378;6.736;2022-09-12T05:34:21;12.40;99.90
59999;DHT22;45859;51.378;6.736;2022-09-12T05:36:46;12.40;99.90
59999;DHT22;45859;51.378;6.736;2022-09-12T05:39:12;12.50;99.90
59999;DHT22;45859;51.378;6.736;2022-09-12T05:41:38;12.60;99.90
59999;DHT22;45859;51.378;6.736;2022-09-12T05:44:05;12.70;99.90
59999;DHT22;45859;51.378;6.736;2022-09-12T05:46:37;12.90;99.90
59999;DHT22;45859;51.378;6.736;2022-09-12T05:49:05;12.90;99.90
59999;DHT22;45859;51.378;6.736;2022-09-12T05:51:35;13.10;99.90
59999;DHT22;45859;51.378;6.736;2022-09-12T05:54:03;13.50;99.90
59999;DHT22;45859;51.378;6.736;2022-09-12T05:56:31;13.50;99.90
59999;DHT22;45859;51.378;6.736;2022-09-12T05:59:03;14.00;99.90
59999;DHT22;45859;51.378;6.736;2022-09-12T06:01:30;14.20;99.90
59999;DHT22;45859;51.378;6.736;2022-09-12T06:03:57;14.40;99.90
59999;DHT22;45859;51.378;6.736;2022-09-12T06:06:26;14.60;99.90
59999;DHT22;45859;51.378;6.736;2022-09-12T06:08:57;14.60;99.90
59999;DHT22;45859;51.378;6.736;2022-09-12T06:11:25;14.60;99.90
59999;DHT22;45859;51.378;6.736;2022-09-12T06:13:51;14.60;99.90
59999;DHT22;45859;51.378;6.736;2022-09-12T06:16:22;14.70;99.90
59999;DHT22;45859;51.378;6.736;2022-09-12T06:18:51;14.70;99.90
59999;DHT22;45859;51.378;6.736;2022-09-12T06:21:18;14.80;99.90
59999;DHT22;45859;51.378;6.736;2022-09-12T06:23:45;14.90;99.90
59999;DHT22;45859;51.378;6.736;2022-09-12T06:26:11;15.10;99.90
59999;DHT22;45859;51.378;6.736;2022-09-12T06:28:39;15.20;99.90
59999;DHT22;45859;51.378;6.736;2022-09-12T06:31:11;15.30;99.90
59999;DHT22;45859;51.378;6.736;2022-09-12T06:33:39;15.70;99.90
59999;DHT22;45859;51.378;6.736;2022-09-12T06:36:07;16.30;99.90
59999;DHT22;45859;51.378;6.736;2022-09-12T06:38:33;17.00;99.90
59999;DHT22;45859;51.378;6.736;2022-09-12T06:41:02;17.40;99.90
59999;DHT22;45859;51.378;6.736;2022-09-12T06:43:29;17.90;99.90
59999;DHT22;45859;51.378;6.736;2022-09-12T06:45:55;18.10;99.90
59999;DHT22;45859;51.378;6.736;2022-09-12T06:48:20;17.90;99.90
59999;DHT22;45859;51.378;6.736;2022-09-12T06:50:57;17.60;99.90
59999;DHT22;45859;51.378;6.736;2022-09-12T06:53:23;17.50;99.90
59999;DHT22;45859;51.378;6.736;2022-09-12T06:55:57;17.60;99.90
59999;DHT22;45859;51.378;6.736;2022-09-12T06:58:24;17.60;99.90
59999;DHT22;45859;51.378;6.736;2022-09-12T07:00:50;17.70;99.90
59999;DHT22;45859;51.378;6.736;2022-09-12T07:03:16;17.40;99.90
59999;DHT22;45859;51.378;6.736;2022-09-12T07:05:43;17.30;99.90
59999;DHT22;45859;51.378;6.736;2022-09-12T07:08:09;17.10;99.90
59999;DHT22;45859;51.378;6.736;2022-09-12T07:10:34;17.10;99.90
59999;DHT22;45859;51.378;6.736;2022-09-12T07:13:00;17.00;99.90
59999;DHT22;45859;51.378;6.736;2022-09-12T07:15:26;17.10;99.90
59999;DHT22;45859;51.378;6.736;2022-09-12T07:17:51;17.10;99.90
59999;DHT22;45859;51.378;6.736;2022-09-12T07:20:17;17.10;99.90
59999;DHT22;45859;51.378;6.736;2022-09-12T07:22:42;17.20;99.90
59999;DHT22;45859;51.378;6.736;2022-09-12T07:25:08;17.20;99.90
59999;DHT22;45859;51.378;6.736;2022-09-12T07:27:34;17.20;99.90
59999;DHT22;45859;51.378;6.736;2022-09-12T07:29:59;17.20;99.90
59999;DHT22;45859;51.378;6.736;2022-09-12T07:32:25;17.30;99.90
59999;DHT22;45859;51.378;6.736;2022-09-12T07:34:51;17.20;99.90
59999;DHT22;45859;51.378;6.736;2022-09-12T07:37:17;17.30;99.90
59999;DHT22;45859;51.378;6.736;2022-09-12T07:39:43;17.20;99.90
59999;DHT22;45859;51.378;6.736;2022-09-12T07:42:09;17.20;99.90
59999;DHT22;45859;51.378;6.736;2022-09-12T07:44:35;17.30;99.90
59999;DHT22;45859;51.378;6.736;2022-09-12T07:47:01;17.30;99.90
59999;DHT22;45859;51.378;6.736;2022-09-12T07:49:27;17.40;99.90
59999;DHT22;45859;51.378;6.736;2022-09-12T07:51:52;17.40;99.90
59999;DHT22;45859;51.378;6.736;2022-09-12T07:54:18;17.30;99.90
59999;DHT22;45859;51.378;6.736;2022-09-12T07:56:44;17.20;99.90
59999;DHT22;45859;51.378;6.736;2022-09-12T07:59:10;17.30;99.90
59999;DHT22;45859;51.378;6.736;2022-09-12T08:01:36;17.30;99.90
59999;DHT22;45859;51.378;6.736;2022-09-12T08:04:01;17.30;99.90
59999;DHT22;45859;51.378;6.736;2022-09-12T08:06:29;17.40;99.90
59999;DHT22;45859;51.378;6.736;2022-09-12T08:08:58;17.50;99.90
59999;DHT22;45859;51.378;6.736;2022-09-12T08:11:25;17.60;99.90
59999;DHT22;45859;51.378;6.736;2022-09-12T08:13:53;18.00;99.90
59999;DHT22;45859;51.378;6.736;2022-09-12T08:16:21;18.10;99.90
59999;DHT22;45859;51.378;6.736;2022-09-12T08:18:48;18.30;99.90
59999;DHT22;45859;51.378;6.736;2022-09-12T08:21:25;18.30;99.90
59999;DHT22;45859;51.378;6.736;2022-09-12T08:23:53;18.50;99.90
59999;DHT22;45859;51.378;6.736;2022-09-12T08:26:19;19.30;99.90
59999;DHT22;45859;51.378;6.736;2022-09-12T08:28:45;20.00;99.90
59999;DHT22;45859;51.378;6.736;2022-09-12T08:31:13;20.50;99.90
59999;DHT22;45859;51.378;6.736;2022-09-12T08:33:39;20.40;99.90
59999;DHT22;45859;51.378;6.736;2022-09-12T08:36:14;20.60;99.90
59999;DHT22;45859;51.378;6.736;2022-09-12T08:38:43;21.20;99.90
59999;DHT22;45859;51.378;6.736;2022-09-12T08:49:40;19.90;99.90
59999;DHT22;45859;51.378;6.736;2022-09-12T08:54:44;20.00;99.90
59999;DHT22;45859;51.378;6.736;2022-09-12T08:57:10;20.00;99.90
59999;DHT22;45859;51.378;6.736;2022-09-12T08:59:38;20.00;99.90
59999;DHT22;45859;51.378;6.736;2022-09-12T09:02:23;20.20;99.90
59999;DHT22;45859;51.378;6.736;2022-09-12T09:05:00;20.40;99.90
59999;DHT22;45859;51.378;6.736;2022-09-12T09:10:34;20.50;99.90
59999;DHT22;45859;51.378;6.736;2022-09-12T09:13:33;20.90;99.90
59999;DHT22;45859;51.378;6.736;2022-09-12T09:16:28;21.10;99.90
59999;DHT22;45859;51.378;6.736;2022-09-12T09:18:58;21.10;99.90
59999;DHT22;45859;51.378;6.736;2022-09-12T09:24:20;21.40;99.90
59999;DHT22;45859;51.378;6.736;2022-09-12T09:26:59;21.60;99.90
59999;DHT22;45859;51.378;6.736;2022-09-12T09:29:35;21.40;99.90
59999;DHT22;45859;51.378;6.736;2022-09-12T09:32:11;21.80;99.90
59999;DHT22;45859;51.378;6.736;2022-09-12T09:34:39;21.90;99.90
59999;DHT22;45859;51.378;6.736;2022-09-12T09:45:21;22.10;99.90
59999;DHT22;45859;51.378;6.736;2022-09-12T09:47:57;22.20;99.90
59999;DHT22;45859;51.378;6.736;2022-09-12T09:50:26;22.50;99.90
59999;DHT22;45859;51.378;6.736;2022-09-12T09:52:54;22.70;99.90
59999;DHT22;45859;51.378;6.736;2022-09-12T09:55:27;22.70;99.90
59999;DHT22;45859;51.378;6.736;2022-09-12T09:57:53;22.70;99.90
59999;DHT22;45859;51.378;6.736;2022-09-12T10:00:27;22.60;99.90
59999;DHT22;45859;51.378;6.736;2022-09-12T10:08:29;22.60;99.90
59999;DHT22;45859;51.378;6.736;2022-09-12T10:11:02;22.70;99.90
59999;DHT22;45859;51.378;6.736;2022-09-12T10:16:02;23.00;99.90
59999;DHT22;45859;51.378;6.736;2022-09-12T10:18:33;23.20;99.90
59999;DHT22;45859;51.378;6.736;2022-09-12T10:21:00;23.20;99.90
59999;DHT22;45859;51.378;6.736;2022-09-12T10:23:36;23.10;99.90
59999;DHT22;45859;51.378;6.736;2022-09-12T10:26:13;23.10;99.90
59999;DHT22;45859;51.378;6.736;2022-09-12T10:28:46;23.10;99.90
59999;DHT22;45859;51.378;6.736;2022-09-12T10:31:15;23.20;99.90
59999;DHT22;45859;51.378;6.736;2022-09-12T10:33:44;23.30;99.90
59999;DHT22;45859;51.378;6.736;2022-09-12T10:36:12;23.30;99.90
59999;DHT22;45859;51.378;6.736;2022-09-12T10:38:38;23.10;99.90
59999;DHT22;45859;51.378;6.736;2022-09-12T10:41:12;23.20;99.90
59999;DHT22;45859;51.378;6.736;2022-09-12T10:43:39;23.20;99.90
59999;DHT22;45859;51.378;6.736;2022-09-12T10:48:41;23.20;99.90
59999;DHT22;45859;51.378;6.736;2022-09-12T10:51:34;23.30;99.90
59999;DHT22;45859;51.378;6.736;2022-09-12T10:54:01;23.40;99.90
59999;DHT22;45859;51.378;6.736;2022-09-12T10:56:30;23.40;99.90
59999;DHT22;45859;51.378;6.736;2022-09-12T10:59:32;23.30;99.90
59999;DHT22;45859;51.378;6.736;2022-09-12T11:07:42;23.50;99.90
59999;DHT22;45859;51.378;6.736;2022-09-12T11:16:06;23.60;99.90
59999;DHT22;45859;51.378;6.736;2022-09-12T11:32:21;23.40;99.90
59999;DHT22;45859;51.378;6.736;2022-09-12T11:43:09;23.70;99.90
59999;DHT22;45859;51.378;6.736;2022-09-12T11:45:43;23.70;99.90
59999;DHT22;45859;51.378;6.736;2022-09-12T11:51:02;23.80;99.90
59999;DHT22;45859;51.378;6.736;2022-09-12T11:53:33;23.70;99.90
59999;DHT22;45859;51.378;6.736;2022-09-12T11:56:18;23.50;99.90
59999;DHT22;45859;51.378;6.736;2022-09-12T11:58:50;23.50;99.90
59999;DHT22;45859;51.378;6.736;2022-09-12T12:01:24;23.60;99.90
59999;DHT22;45859;51.378;6.736;2022-09-12T12:03:51;23.60;99.90
59999;DHT22;45859;51.378;6.736;2022-09-12T12:06:31;23.60;99.90
59999;DHT22;45859;51.378;6.736;2022-09-12T12:08:57;23.60;99.90
59999;DHT22;45859;51.378;6.736;2022-09-12T12:13:59;23.50;99.90
59999;DHT22;45859;51.378;6.736;2022-09-12T12:16:33;23.60;99.90
59999;DHT22;45859;51.378;6.736;2022-09-12T12:19:05;23.50;99.90
59999;DHT22;45859;51.378;6.736;2022-09-12T12:21:34;23.50;99.90
59999;DHT22;45859;51.378;6.736;2022-09-12T12:24:24;23.50;99.90
59999;DHT22;45859;51.378;6.736;2022-09-12T12:26:59;23.70;99.90
59999;DHT22;45859;51.378;6.736;2022-09-12T12:29:44;23.70;99.90
59999;DHT22;45859;51.378;6.736;2022-09-12T12:34:42;23.60;99.90
59999;DHT22;45859;51.378;6.736;2022-09-12T12:45:43;23.70;99.90
59999;DHT22;45859;51.378;6.736;2022-09-12T12:48:00;23.70;99.90
59999;DHT22;45859;51.378;6.736;2022-09-12T12:50:32;23.80;99.90
59999;DHT22;45859;51.378;6.736;2022-09-12T12:53:27;23.70;99.90
59999;DHT22;45859;51.378;6.736;2022-09-12T12:55:55;23.60;99.90
59999;DHT22;45859;51.378;6.736;2022-09-12T13:01:16;23.60;99.90
59999;DHT22;45859;51.378;6.736;2022-09-12T13:03:45;23.60;99.90
59999;DHT22;45859;51.378;6.736;2022-09-12T13:09:04;23.80;99.90
59999;DHT22;45859;51.378;6.736;2022-09-12T13:11:34;23.70;99.90
59999;DHT22;45859;51.378;6.736;2022-09-12T13:14:06;23.70;99.90
59999;DHT22;45859;51.378;6.736;2022-09-12T13:16:52;23.70;99.90
59999;DHT22;45859;51.378;6.736;2022-09-12T13:19:27;23.70;99.90
59999;DHT22;45859;51.378;6.736;2022-09-12T13:21:59;23.80;99.90
59999;DHT22;45859;51.378;6.736;2022-09-12T13:24:26;23.90;99.90
59999;DHT22;45859;51.378;6.736;2022-09-12T13:26:52;23.90;99.90
59999;DHT22;45859;51.378;6.736;2022-09-12T13:29:20;23.90;99.90
59999;DHT22;45859;51.378;6.736;2022-09-12T13:31:58;23.90;99.90
59999;DHT22;45859;51.378;6.736;2022-09-12T13:45:44;23.90;99.90
59999;DHT22;45859;51.378;6.736;2022-09-12T13:47:47;23.90;99.90
59999;DHT22;45859;51.378;6.736;2022-09-12T13:50:25;24.00;99.90
59999;DHT22;45859;51.378;6.736;2022-09-12T13:53:00;24.00;99.90
59999;DHT22;45859;51.378;6.736;2022-09-12T13:55:39;24.00;99.90
59999;DHT22;45859;51.378;6.736;2022-09-12T13:58:32;24.10;99.90
59999;DHT22;45859;51.378;6.736;2022-09-12T14:03:50;24.00;99.90
59999;DHT22;45859;51.378;6.736;2022-09-12T14:06:55;24.10;99.90
59999;DHT22;45859;51.378;6.736;2022-09-12T14:09:27;24.20;99.90
59999;DHT22;45859;51.378;6.736;2022-09-12T14:11:54;24.20;99.90
59999;DHT22;45859;51.378;6.736;2022-09-12T14:14:28;24.10;99.90
59999;DHT22;45859;51.378;6.736;2022-09-12T14:16:57;24.20;99.90
59999;DHT22;45859;51.378;6.736;2022-09-12T14:19:23;24.30;99.90
59999;DHT22;45859;51.378;6.736;2022-09-12T14:21:52;24.30;99.90
59999;DHT22;45859;51.378;6.736;2022-09-12T14:24:18;24.20;99.90
59999;DHT22;45859;51.378;6.736;2022-09-12T14:26:45;24.20;99.90
59999;DHT22;45859;51.378;6.736;2022-09-12T14:29:14;24.20;99.90
59999;DHT22;45859;51.378;6.736;2022-09-12T14:31:41;24.10;99.90
59999;DHT22;45859;51.378;6.736;2022-09-12T14:34:09;24.00;99.90
59999;DHT22;45859;51.378;6.736;2022-09-12T14:36:49;24.00;99.90
59999;DHT22;45859;51.378;6.736;2022-09-12T14:39:27;24.00;99.90
59999;DHT22;45859;51.378;6.736;2022-09-12T14:42:16;24.00;99.90
59999;DHT22;45859;51.378;6.736;2022-09-12T14:44:57;24.00;99.90
59999;DHT22;45859;51.378;6.736;2022-09-12T14:47:27;24.00;99.90
59999;DHT22;45859;51.378;6.736;2022-09-12T14:49:57;24.00;99.90
59999;DHT22;45859;51.378;6.736;2022-09-12T14:52:31;24.10;99.90
59999;DHT22;45859;51.378;6.736;2022-09-12T14:57:37;24.20;99.90
59999;DHT22;45859;51.378;6.736;2022-09-12T15:02:42;24.10;99.90
59999;DHT22;45859;51.378;6.736;2022-09-12T15:07:43;24.00;99.90
59999;DHT22;45859;51.378;6.736;2022-09-12T15:15:34;24.00;99.90
59999;DHT22;45859;51.378;6.736;2022-09-12T15:18:00;24.00;99.90
59999;DHT22;45859;51.378;6.736;2022-09-12T15:20:26;24.00;99.90
59999;DHT22;45859;51.378;6.736;2022-09-12T15:22:52;24.00;99.90
59999;DHT22;45859;51.378;6.736;2022-09-12T15:25:19;23.90;99.90
59999;DHT22;45859;51.378;6.736;2022-09-12T15:27:46;23.90;99.90
59999;DHT22;45859;51.378;6.736;2022-09-12T15:30:12;23.90;99.90
59999;DHT22;45859;51.378;6.736;2022-09-12T15:32:42;23.90;99.90
59999;DHT22;45859;51.378;6.736;2022-09-12T15:35:11;23.90;99.90
59999;DHT22;45859;51.378;6.736;2022-09-12T15:37:40;23.90;99.90
59999;DHT22;45859;51.378;6.736;2022-09-12T15:40:06;23.80;99.90
59999;DHT22;45859;51.378;6.736;2022-09-12T15:42:32;23.80;99.90
59999;DHT22;45859;51.378;6.736;2022-09-12T15:44:58;23.90;99.90
59999;DHT22;45859;51.378;6.736;2022-09-12T15:47:24;23.90;99.90
59999;DHT22;45859;51.378;6.736;2022-09-12T15:49:50;23.80;99.90
59999;DHT22;45859;51.378;6.736;2022-09-12T15:52:16;23.80;99.90
59999;DHT22;45859;51.378;6.736;2022-09-12T15:54:42;23.80;99.90
59999;DHT22;45859;51.378;6.736;2022-09-12T15:57:08;23.80;99.90
59999;DHT22;45859;51.378;6.736;2022-09-12T15:59:34;23.80;99.90
59999;DHT22;45859;51.378;6.736;2022-09-12T16:02:00;23.80;99.90
59999;DHT22;45859;51.378;6.736;2022-09-12T16:04:28;23.70;99.90
59999;DHT22;45859;51.378;6.736;2022-09-12T16:06:55;23.70;99.90
59999;DHT22;45859;51.378;6.736;2022-09-12T16:09:22;23.70;99.90
59999;DHT22;45859;51.378;6.736;2022-09-12T16:11:48;23.70;99.90
59999;DHT22;45859;51.378;6.736;2022-09-12T16:14:15;23.70;99.90
59999;DHT22;45859;51.378;6.736;2022-09-12T16:16:42;23.60;99.90
59999;DHT22;45859;51.378;6.736;2022-09-12T16:19:08;23.70;99.90
59999;DHT22;45859;51.378;6.736;2022-09-12T16:21:38;23.70;99.90
59999;DHT22;45859;51.378;6.736;2022-09-12T16:24:04;23.70;99.90
59999;DHT22;45859;51.378;6.736;2022-09-12T16:26:29;23.70;99.90
59999;DHT22;45859;51.378;6.736;2022-09-12T16:28:59;23.70;99.90
59999;DHT22;45859;51.378;6.736;2022-09-12T16:31:25;23.70;99.90
59999;DHT22;45859;51.378;6.736;2022-09-12T16:33:52;23.70;99.90
59999;DHT22;45859;51.378;6.736;2022-09-12T16:36:19;23.70;99.90
59999;DHT22;45859;51.378;6.736;2022-09-12T16:38:54;23.70;99.90
59999;DHT22;45859;51.378;6.736;2022-09-12T16:41:22;23.70;99.90
59999;DHT22;45859;51.378;6.736;2022-09-12T16:43:49;23.70;99.90
59999;DHT22;45859;51.378;6.736;2022-09-12T16:46:26;23.70;99.90
59999;DHT22;45859;51.378;6.736;2022-09-12T16:48:56;23.60;99.90
59999;DHT22;45859;51.378;6.736;2022-09-12T16:51:32;23.60;99.90
59999;DHT22;45859;51.378;6.736;2022-09-12T16:54:00;23.60;99.90
59999;DHT22;45859;51.378;6.736;2022-09-12T16:56:26;23.60;99.90
59999;DHT22;45859;51.378;6.736;2022-09-12T16:58:52;23.50;99.90
59999;DHT22;45859;51.378;6.736;2022-09-12T17:01:23;23.50;99.90
59999;DHT22;45859;51.378;6.736;2022-09-12T17:03:54;23.50;99.90
59999;DHT22;45859;51.378;6.736;2022-09-12T17:06:21;23.50;99.90
59999;DHT22;45859;51.378;6.736;2022-09-12T17:08:49;23.40;99.90
59999;DHT22;45859;51.378;6.736;2022-09-12T17:11:17;23.40;99.90
59999;DHT22;45859;51.378;6.736;2022-09-12T17:13:51;23.30;99.90
59999;DHT22;45859;51.378;6.736;2022-09-12T17:16:18;23.20;99.90
59999;DHT22;45859;51.378;6.736;2022-09-12T17:18:44;23.20;99.90
59999;DHT22;45859;51.378;6.736;2022-09-12T17:21:11;23.20;99.90
59999;DHT22;45859;51.378;6.736;2022-09-12T17:23:37;23.10;99.90
59999;DHT22;45859;51.378;6.736;2022-09-12T17:26:04;23.00;99.90
59999;DHT22;45859;51.378;6.736;2022-09-12T17:28:30;22.80;99.90
59999;DHT22;45859;51.378;6.736;2022-09-12T17:30:58;22.60;99.90
59999;DHT22;45859;51.378;6.736;2022-09-12T17:33:24;22.50;99.90
59999;DHT22;45859;51.378;6.736;2022-09-12T17:35:51;22.40;99.90
59999;DHT22;45859;51.378;6.736;2022-09-12T17:38:17;22.20;99.90
59999;DHT22;45859;51.378;6.736;2022-09-12T17:40:43;22.10;99.90
59999;DHT22;45859;51.378;6.736;2022-09-12T17:43:13;21.90;99.90
59999;DHT22;45859;51.378;6.736;2022-09-12T17:45:40;21.80;99.90
59999;DHT22;45859;51.378;6.736;2022-09-12T17:48:06;21.70;99.90
59999;DHT22;45859;51.378;6.736;2022-09-12T17:50:39;21.50;99.90
59999;DHT22;45859;51.378;6.736;2022-09-12T17:53:06;21.50;99.90
59999;DHT22;45859;51.378;6.736;2022-09-12T17:55:36;21.40;99.90
59999;DHT22;45859;51.378;6.736;2022-09-12T17:58:03;21.20;99.90
59999;DHT22;45859;51.378;6.736;2022-09-12T18:00:30;21.20;99.90
59999;DHT22;45859;51.378;6.736;2022-09-12T18:03:15;21.00;99.90
59999;DHT22;45859;51.378;6.736;2022-09-12T18:05:48;20.90;99.90
59999;DHT22;45859;51.378;6.736;2022-09-12T18:10:48;20.70;99.90
59999;DHT22;45859;51.378;6.736;2022-09-12T18:13:14;20.60;99.90
59999;DHT22;45859;51.378;6.736;2022-09-12T18:15:41;20.50;99.90
59999;DHT22;45859;51.378;6.736;2022-09-12T18:18:06;20.40;99.90
59999;DHT22;45859;51.378;6.736;2022-09-12T18:20:32;20.30;99.90
59999;DHT22;45859;51.378;6.736;2022-09-12T18:22:58;20.30;99.90
59999;DHT22;45859;51.378;6.736;2022-09-12T18:25:24;20.30;99.90
59999;DHT22;45859;51.378;6.736;2022-09-12T18:27:50;20.20;99.90
59999;DHT22;45859;51.378;6.736;2022-09-12T18:30:17;20.20;99.90